sensor_id;sensor_type;location;lat;lon;timestamp;P1;durP1;ratioP1;P2;durP2;ratioP2
29120;SDS011;16191;49.548;8.658;2022-12-16T00:00:03;34.97;;;17.23;;
29120;SDS011;16191;49.548;8.658;2022-12-16T00:02:31;37.65;;;17.85;;
29120;SDS011;16191;49.548;8.658;2022-12-16T00:04:58;36.17;;;18.55;;
29120;SDS011;16191;49.548;8.658;2022-12-16T00:07:25;33.67;;;17.30;;
29120;SDS011;16191;49.548;8.658;2022-12-16T00:09:51;35.00;;;17.58;;
29120;SDS011;16191;49.548;8.658;2022-12-16T00:12:18;31.63;;;17.05;;
29120;SDS011;16191;49.548;8.658;2022-12-16T00:14:44;35.03;;;17.73;;
29120;SDS011;16191;49.548;8.658;2022-12-16T00:17:11;33.38;;;16.80;;
29120;SDS011;16191;49.548;8.658;2022-12-16T00:19:37;32.20;;;16.27;;
29120;SDS011;16191;49.548;8.658;2022-12-16T00:22:04;35.65;;;18.10;;
29120;SDS011;16191;49.548;8.658;2022-12-16T00:24:30;38.35;;;17.60;;
29120;SDS011;16191;49.548;8.658;2022-12-16T00:26:57;34.38;;;17.17;;
29120;SDS011;16191;49.548;8.658;2022-12-16T00:29:23;34.20;;;16.55;;
29120;SDS011;16191;49.548;8.658;2022-12-16T00:31:50;33.83;;;16.58;;
29120;SDS011;16191;49.548;8.658;2022-12-16T00:34:17;34.97;;;15.68;;
29120;SDS011;16191;49.548;8.658;2022-12-16T00:36:44;32.13;;;16.35;;
29120;SDS011;16191;49.548;8.658;2022-12-16T00:39:10;35.40;;;16.73;;
29120;SDS011;16191;49.548;8.658;2022-12-16T00:41:37;30.17;;;16.10;;
29120;SDS011;16191;49.548;8.658;2022-12-16T00:44:04;32.45;;;16.60;;
29120;SDS011;16191;49.548;8.658;2022-12-16T00:46:30;30.35;;;16.15;;
29120;SDS011;16191;49.548;8.658;2022-12-16T00:48:57;27.13;;;15.00;;
29120;SDS011;16191;49.548;8.658;2022-12-16T00:51:23;33.70;;;16.25;;
29120;SDS011;16191;49.548;8.658;2022-12-16T00:53:50;32.60;;;16.92;;
29120;SDS011;16191;49.548;8.658;2022-12-16T00:56:17;31.58;;;15.75;;
29120;SDS011;16191;49.548;8.658;2022-12-16T00:58:44;31.10;;;16.27;;
29120;SDS011;16191;49.548;8.658;2022-12-16T01:01:11;30.42;;;15.82;;
29120;SDS011;16191;49.548;8.658;2022-12-16T01:03:38;34.67;;;16.35;;
29120;SDS011;16191;49.548;8.658;2022-12-16T01:06:09;33.90;;;16.13;;
29120;SDS011;16191;49.548;8.658;2022-12-16T01:08:38;30.75;;;14.73;;
29120;SDS011;16191;49.548;8.658;2022-12-16T01:11:05;32.88;;;15.90;;
29120;SDS011;16191;49.548;8.658;2022-12-16T01:13:31;30.83;;;15.35;;
29120;SDS011;16191;49.548;8.658;2022-12-16T01:15:59;31.40;;;16.05;;
29120;SDS011;16191;49.548;8.658;2022-12-16T01:18:27;28.90;;;15.07;;
29120;SDS011;16191;49.548;8.658;2022-12-16T01:20:53;26.10;;;14.75;;
29120;SDS011;16191;49.548;8.658;2022-12-16T01:23:20;29.42;;;14.40;;
29120;SDS011;16191;49.548;8.658;2022-12-16T01:25:57;30.30;;;14.00;;
29120;SDS011;16191;49.548;8.658;2022-12-16T01:28:28;28.60;;;15.45;;
29120;SDS011;16191;49.548;8.658;2022-12-16T01:31:15;31.80;;;14.60;;
29120;SDS011;16191;49.548;8.658;2022-12-16T01:34:03;26.50;;;14.68;;
29120;SDS011;16191;49.548;8.658;2022-12-16T01:36:50;29.85;;;14.73;;
29120;SDS011;16191;49.548;8.658;2022-12-16T01:39:37;31.52;;;14.43;;
29120;SDS011;16191;49.548;8.658;2022-12-16T01:42:24;26.50;;;13.73;;
29120;SDS011;16191;49.548;8.658;2022-12-16T01:45:28;29.97;;;14.23;;
29120;SDS011;16191;49.548;8.658;2022-12-16T01:48:00;29.73;;;15.40;;
29120;SDS011;16191;49.548;8.658;2022-12-16T01:50:44;29.45;;;13.93;;
29120;SDS011;16191;49.548;8.658;2022-12-16T01:53:11;27.23;;;15.43;;
29120;SDS011;16191;49.548;8.658;2022-12-16T01:55:40;31.98;;;14.70;;
29120;SDS011;16191;49.548;8.658;2022-12-16T01:58:17;27.10;;;13.73;;
29120;SDS011;16191;49.548;8.658;2022-12-16T02:00:48;27.77;;;14.23;;
29120;SDS011;16191;49.548;8.658;2022-12-16T02:03:15;31.27;;;15.68;;
29120;SDS011;16191;49.548;8.658;2022-12-16T02:05:43;27.98;;;13.70;;
29120;SDS011;16191;49.548;8.658;2022-12-16T02:08:13;26.88;;;13.95;;
29120;SDS011;16191;49.548;8.658;2022-12-16T02:24:37;31.00;;;15.20;;
29120;SDS011;16191;49.548;8.658;2022-12-16T02:33:13;25.10;;;13.02;;
29120;SDS011;16191;49.548;8.658;2022-12-16T02:35:48;27.45;;;14.05;;
29120;SDS011;16191;49.548;8.658;2022-12-16T02:38:33;29.20;;;13.82;;
29120;SDS011;16191;49.548;8.658;2022-12-16T02:41:31;27.02;;;14.23;;
29120;SDS011;16191;49.548;8.658;2022-12-16T02:44:00;26.10;;;13.40;;
29120;SDS011;16191;49.548;8.658;2022-12-16T02:46:30;24.73;;;12.88;;
29120;SDS011;16191;49.548;8.658;2022-12-16T02:49:06;27.33;;;13.63;;
29120;SDS011;16191;49.548;8.658;2022-12-16T02:51:34;28.55;;;13.82;;
29120;SDS011;16191;49.548;8.658;2022-12-16T02:54:05;27.80;;;12.68;;
29120;SDS011;16191;49.548;8.658;2022-12-16T02:56:39;25.70;;;13.75;;
29120;SDS011;16191;49.548;8.658;2022-12-16T02:59:14;26.17;;;13.05;;
29120;SDS011;16191;49.548;8.658;2022-12-16T03:02:04;22.55;;;11.95;;
29120;SDS011;16191;49.548;8.658;2022-12-16T03:04:42;30.08;;;12.88;;
29120;SDS011;16191;49.548;8.658;2022-12-16T03:07:16;24.70;;;12.60;;
29120;SDS011;16191;49.548;8.658;2022-12-16T03:09:47;24.65;;;12.32;;
29120;SDS011;16191;49.548;8.658;2022-12-16T03:12:15;24.42;;;13.35;;
29120;SDS011;16191;49.548;8.658;2022-12-16T03:14:45;28.67;;;12.73;;
29120;SDS011;16191;49.548;8.658;2022-12-16T03:17:15;26.30;;;12.07;;
29120;SDS011;16191;49.548;8.658;2022-12-16T03:19:48;23.05;;;12.70;;
29120;SDS011;16191;49.548;8.658;2022-12-16T03:22:22;24.45;;;12.35;;
29120;SDS011;16191;49.548;8.658;2022-12-16T03:24:54;23.48;;;11.55;;
29120;SDS011;16191;49.548;8.658;2022-12-16T03:30:04;26.58;;;12.60;;
29120;SDS011;16191;49.548;8.658;2022-12-16T03:32:50;25.02;;;12.27;;
29120;SDS011;16191;49.548;8.658;2022-12-16T03:35:26;26.70;;;12.65;;
29120;SDS011;16191;49.548;8.658;2022-12-16T03:37:58;26.42;;;13.10;;
29120;SDS011;16191;49.548;8.658;2022-12-16T03:40:28;23.63;;;11.60;;
29120;SDS011;16191;49.548;8.658;2022-12-16T03:42:58;28.63;;;13.07;;
29120;SDS011;16191;49.548;8.658;2022-12-16T03:45:31;24.15;;;13.23;;
29120;SDS011;16191;49.548;8.658;2022-12-16T03:48:03;24.45;;;11.60;;
29120;SDS011;16191;49.548;8.658;2022-12-16T03:50:32;24.30;;;12.50;;
29120;SDS011;16191;49.548;8.658;2022-12-16T03:53:00;23.38;;;13.13;;
29120;SDS011;16191;49.548;8.658;2022-12-16T03:55:27;24.38;;;13.07;;
29120;SDS011;16191;49.548;8.658;2022-12-16T03:57:54;28.02;;;12.50;;
29120;SDS011;16191;49.548;8.658;2022-12-16T04:00:22;28.13;;;12.20;;
29120;SDS011;16191;49.548;8.658;2022-12-16T04:02:49;24.15;;;12.48;;
29120;SDS011;16191;49.548;8.658;2022-12-16T04:05:16;26.05;;;12.23;;
29120;SDS011;16191;49.548;8.658;2022-12-16T04:07:43;26.02;;;13.48;;
29120;SDS011;16191;49.548;8.658;2022-12-16T04:10:10;26.58;;;13.27;;
29120;SDS011;16191;49.548;8.658;2022-12-16T04:12:37;28.73;;;13.68;;
29120;SDS011;16191;49.548;8.658;2022-12-16T04:15:22;25.65;;;13.07;;
29120;SDS011;16191;49.548;8.658;2022-12-16T04:18:15;27.42;;;14.07;;
29120;SDS011;16191;49.548;8.658;2022-12-16T04:21:02;28.27;;;12.90;;
29120;SDS011;16191;49.548;8.658;2022-12-16T04:23:48;26.23;;;12.63;;
29120;SDS011;16191;49.548;8.658;2022-12-16T04:26:37;24.52;;;12.15;;
29120;SDS011;16191;49.548;8.658;2022-12-16T04:29:22;30.77;;;14.07;;
29120;SDS011;16191;49.548;8.658;2022-12-16T04:31:50;27.27;;;13.73;;
29120;SDS011;16191;49.548;8.658;2022-12-16T04:34:17;26.38;;;13.68;;
29120;SDS011;16191;49.548;8.658;2022-12-16T04:36:54;29.08;;;13.70;;
29120;SDS011;16191;49.548;8.658;2022-12-16T04:39:41;29.48;;;14.05;;
29120;SDS011;16191;49.548;8.658;2022-12-16T04:42:26;31.40;;;13.70;;
29120;SDS011;16191;49.548;8.658;2022-12-16T04:45:12;33.03;;;14.10;;
29120;SDS011;16191;49.548;8.658;2022-12-16T04:47:58;28.17;;;13.55;;
29120;SDS011;16191;49.548;8.658;2022-12-16T04:50:44;27.88;;;13.15;;
29120;SDS011;16191;49.548;8.658;2022-12-16T04:53:29;25.17;;;12.55;;
29120;SDS011;16191;49.548;8.658;2022-12-16T04:56:15;37.17;;;14.68;;
29120;SDS011;16191;49.548;8.658;2022-12-16T04:59:00;34.00;;;14.90;;
29120;SDS011;16191;49.548;8.658;2022-12-16T05:01:45;31.63;;;15.32;;
29120;SDS011;16191;49.548;8.658;2022-12-16T05:04:31;30.95;;;14.40;;
29120;SDS011;16191;49.548;8.658;2022-12-16T05:07:16;33.08;;;13.95;;
29120;SDS011;16191;49.548;8.658;2022-12-16T05:10:04;32.88;;;14.13;;
29120;SDS011;16191;49.548;8.658;2022-12-16T05:12:54;29.35;;;13.75;;
29120;SDS011;16191;49.548;8.658;2022-12-16T05:15:39;26.65;;;13.50;;
29120;SDS011;16191;49.548;8.658;2022-12-16T05:18:25;32.63;;;16.35;;
29120;SDS011;16191;49.548;8.658;2022-12-16T05:21:10;29.38;;;14.38;;
29120;SDS011;16191;49.548;8.658;2022-12-16T05:23:56;28.75;;;15.35;;
29120;SDS011;16191;49.548;8.658;2022-12-16T05:26:41;25.38;;;14.23;;
29120;SDS011;16191;49.548;8.658;2022-12-16T05:29:27;28.77;;;14.63;;
29120;SDS011;16191;49.548;8.658;2022-12-16T05:32:12;30.85;;;14.55;;
29120;SDS011;16191;49.548;8.658;2022-12-16T05:34:57;30.88;;;14.65;;
29120;SDS011;16191;49.548;8.658;2022-12-16T05:37:42;31.20;;;13.77;;
29120;SDS011;16191;49.548;8.658;2022-12-16T05:40:28;31.45;;;15.88;;
29120;SDS011;16191;49.548;8.658;2022-12-16T05:43:14;31.17;;;14.73;;
29120;SDS011;16191;49.548;8.658;2022-12-16T05:46:00;30.10;;;14.73;;
29120;SDS011;16191;49.548;8.658;2022-12-16T05:48:45;32.15;;;14.18;;
29120;SDS011;16191;49.548;8.658;2022-12-16T05:51:31;29.95;;;14.85;;
29120;SDS011;16191;49.548;8.658;2022-12-16T05:54:16;27.35;;;13.68;;
29120;SDS011;16191;49.548;8.658;2022-12-16T05:57:02;28.98;;;13.98;;
29120;SDS011;16191;49.548;8.658;2022-12-16T05:59:47;29.50;;;13.85;;
29120;SDS011;16191;49.548;8.658;2022-12-16T06:02:36;35.75;;;16.08;;
29120;SDS011;16191;49.548;8.658;2022-12-16T06:05:22;33.60;;;14.77;;
29120;SDS011;16191;49.548;8.658;2022-12-16T06:08:07;32.33;;;16.67;;
29120;SDS011;16191;49.548;8.658;2022-12-16T06:10:52;32.13;;;16.75;;
29120;SDS011;16191;49.548;8.658;2022-12-16T06:13:38;33.20;;;16.67;;
29120;SDS011;16191;49.548;8.658;2022-12-16T06:16:23;30.75;;;14.05;;
29120;SDS011;16191;49.548;8.658;2022-12-16T06:19:08;28.92;;;13.65;;
29120;SDS011;16191;49.548;8.658;2022-12-16T06:21:53;33.95;;;15.07;;
29120;SDS011;16191;49.548;8.658;2022-12-16T06:24:39;30.40;;;14.85;;
29120;SDS011;16191;49.548;8.658;2022-12-16T06:27:24;35.05;;;15.57;;
29120;SDS011;16191;49.548;8.658;2022-12-16T06:30:09;34.47;;;16.42;;
29120;SDS011;16191;49.548;8.658;2022-12-16T06:32:55;37.47;;;15.07;;
29120;SDS011;16191;49.548;8.658;2022-12-16T06:35:40;30.63;;;15.52;;
29120;SDS011;16191;49.548;8.658;2022-12-16T06:38:26;34.75;;;16.20;;
29120;SDS011;16191;49.548;8.658;2022-12-16T06:41:11;28.98;;;14.77;;
29120;SDS011;16191;49.548;8.658;2022-12-16T06:43:56;37.55;;;15.75;;
29120;SDS011;16191;49.548;8.658;2022-12-16T06:46:41;33.05;;;16.50;;
29120;SDS011;16191;49.548;8.658;2022-12-16T06:49:26;33.65;;;15.48;;
29120;SDS011;16191;49.548;8.658;2022-12-16T06:52:12;33.38;;;16.48;;
29120;SDS011;16191;49.548;8.658;2022-12-16T06:54:57;39.00;;;17.73;;
29120;SDS011;16191;49.548;8.658;2022-12-16T06:57:43;40.85;;;16.90;;
29120;SDS011;16191;49.548;8.658;2022-12-16T07:00:35;28.52;;;14.43;;
29120;SDS011;16191;49.548;8.658;2022-12-16T07:03:20;35.13;;;16.08;;
29120;SDS011;16191;49.548;8.658;2022-12-16T07:06:07;31.27;;;15.05;;
29120;SDS011;16191;49.548;8.658;2022-12-16T07:08:52;36.88;;;14.85;;
29120;SDS011;16191;49.548;8.658;2022-12-16T07:11:45;32.88;;;16.10;;
29120;SDS011;16191;49.548;8.658;2022-12-16T07:14:31;34.03;;;15.68;;
29120;SDS011;16191;49.548;8.658;2022-12-16T07:17:16;35.90;;;16.75;;
29120;SDS011;16191;49.548;8.658;2022-12-16T07:20:01;36.55;;;16.10;;
29120;SDS011;16191;49.548;8.658;2022-12-16T07:22:47;42.47;;;17.13;;
29120;SDS011;16191;49.548;8.658;2022-12-16T07:25:42;41.35;;;17.00;;
29120;SDS011;16191;49.548;8.658;2022-12-16T07:28:27;39.35;;;16.90;;
29120;SDS011;16191;49.548;8.658;2022-12-16T07:31:13;45.42;;;17.05;;
29120;SDS011;16191;49.548;8.658;2022-12-16T07:33:58;53.15;;;21.27;;
29120;SDS011;16191;49.548;8.658;2022-12-16T07:36:43;40.67;;;17.35;;
29120;SDS011;16191;49.548;8.658;2022-12-16T07:39:29;39.53;;;17.33;;
29120;SDS011;16191;49.548;8.658;2022-12-16T07:42:20;33.83;;;16.45;;
29120;SDS011;16191;49.548;8.658;2022-12-16T07:45:05;34.85;;;16.80;;
29120;SDS011;16191;49.548;8.658;2022-12-16T07:47:51;39.58;;;17.58;;
29120;SDS011;16191;49.548;8.658;2022-12-16T07:50:36;35.30;;;18.38;;
29120;SDS011;16191;49.548;8.658;2022-12-16T07:53:22;34.22;;;16.95;;
29120;SDS011;16191;49.548;8.658;2022-12-16T07:56:08;34.38;;;16.17;;
29120;SDS011;16191;49.548;8.658;2022-12-16T07:58:53;37.05;;;17.58;;
29120;SDS011;16191;49.548;8.658;2022-12-16T08:01:38;36.17;;;16.67;;
29120;SDS011;16191;49.548;8.658;2022-12-16T08:04:24;43.20;;;18.20;;
29120;SDS011;16191;49.548;8.658;2022-12-16T08:07:09;46.35;;;17.33;;
29120;SDS011;16191;49.548;8.658;2022-12-16T08:09:54;39.78;;;17.13;;
29120;SDS011;16191;49.548;8.658;2022-12-16T08:12:39;39.25;;;17.35;;
29120;SDS011;16191;49.548;8.658;2022-12-16T08:15:25;39.65;;;18.52;;
29120;SDS011;16191;49.548;8.658;2022-12-16T08:18:10;38.15;;;17.45;;
29120;SDS011;16191;49.548;8.658;2022-12-16T08:20:55;44.83;;;19.58;;
29120;SDS011;16191;49.548;8.658;2022-12-16T08:23:40;49.53;;;18.83;;
29120;SDS011;16191;49.548;8.658;2022-12-16T08:26:25;45.38;;;18.30;;
29120;SDS011;16191;49.548;8.658;2022-12-16T08:29:10;41.40;;;17.38;;
29120;SDS011;16191;49.548;8.658;2022-12-16T08:32:11;37.38;;;17.48;;
29120;SDS011;16191;49.548;8.658;2022-12-16T08:34:58;35.47;;;17.45;;
29120;SDS011;16191;49.548;8.658;2022-12-16T08:37:44;35.92;;;17.27;;
29120;SDS011;16191;49.548;8.658;2022-12-16T08:40:39;35.28;;;17.58;;
29120;SDS011;16191;49.548;8.658;2022-12-16T08:43:25;35.83;;;17.02;;
29120;SDS011;16191;49.548;8.658;2022-12-16T08:46:11;39.60;;;17.17;;
29120;SDS011;16191;49.548;8.658;2022-12-16T08:48:56;33.90;;;16.00;;
29120;SDS011;16191;49.548;8.658;2022-12-16T08:51:46;34.63;;;17.27;;
29120;SDS011;16191;49.548;8.658;2022-12-16T08:54:31;40.33;;;19.15;;
29120;SDS011;16191;49.548;8.658;2022-12-16T08:57:17;40.20;;;17.77;;
29120;SDS011;16191;49.548;8.658;2022-12-16T09:00:03;41.42;;;19.83;;
29120;SDS011;16191;49.548;8.658;2022-12-16T09:02:54;39.67;;;17.90;;
29120;SDS011;16191;49.548;8.658;2022-12-16T09:05:40;37.45;;;17.92;;
29120;SDS011;16191;49.548;8.658;2022-12-16T09:08:26;34.75;;;17.05;;
29120;SDS011;16191;49.548;8.658;2022-12-16T09:11:12;33.03;;;16.30;;
29120;SDS011;16191;49.548;8.658;2022-12-16T09:13:57;32.95;;;15.60;;
29120;SDS011;16191;49.548;8.658;2022-12-16T09:16:42;27.48;;;14.43;;
29120;SDS011;16191;49.548;8.658;2022-12-16T09:19:28;29.50;;;15.07;;
29120;SDS011;16191;49.548;8.658;2022-12-16T09:22:13;30.00;;;15.32;;
29120;SDS011;16191;49.548;8.658;2022-12-16T09:24:58;32.03;;;16.33;;
29120;SDS011;16191;49.548;8.658;2022-12-16T09:27:47;29.63;;;15.45;;
29120;SDS011;16191;49.548;8.658;2022-12-16T09:30:34;30.27;;;14.95;;
29120;SDS011;16191;49.548;8.658;2022-12-16T09:33:21;33.10;;;16.00;;
29120;SDS011;16191;49.548;8.658;2022-12-16T09:36:06;32.30;;;16.45;;
29120;SDS011;16191;49.548;8.658;2022-12-16T09:38:52;27.88;;;15.82;;
29120;SDS011;16191;49.548;8.658;2022-12-16T09:41:40;34.55;;;16.83;;
29120;SDS011;16191;49.548;8.658;2022-12-16T09:44:33;33.20;;;17.67;;
29120;SDS011;16191;49.548;8.658;2022-12-16T09:47:31;33.78;;;15.70;;
29120;SDS011;16191;49.548;8.658;2022-12-16T09:50:25;28.38;;;14.95;;
29120;SDS011;16191;49.548;8.658;2022-12-16T09:53:14;29.85;;;15.65;;
29120;SDS011;16191;49.548;8.658;2022-12-16T09:56:04;31.02;;;15.90;;
29120;SDS011;16191;49.548;8.658;2022-12-16T09:58:58;27.23;;;15.32;;
29120;SDS011;16191;49.548;8.658;2022-12-16T10:01:46;30.75;;;16.45;;
29120;SDS011;16191;49.548;8.658;2022-12-16T10:04:32;30.63;;;14.93;;
29120;SDS011;16191;49.548;8.658;2022-12-16T10:07:19;28.85;;;14.80;;
29120;SDS011;16191;49.548;8.658;2022-12-16T10:10:17;25.70;;;14.10;;
29120;SDS011;16191;49.548;8.658;2022-12-16T10:26:22;28.30;;;13.80;;
29120;SDS011;16191;49.548;8.658;2022-12-16T10:29:20;25.27;;;14.10;;
29120;SDS011;16191;49.548;8.658;2022-12-16T10:32:38;29.50;;;13.32;;
29120;SDS011;16191;49.548;8.658;2022-12-16T10:35:27;22.52;;;12.30;;
29120;SDS011;16191;49.548;8.658;2022-12-16T10:41:25;24.90;;;13.75;;
29120;SDS011;16191;49.548;8.658;2022-12-16T10:44:56;31.40;;;14.07;;
29120;SDS011;16191;49.548;8.658;2022-12-16T10:47:42;27.15;;;13.40;;
29120;SDS011;16191;49.548;8.658;2022-12-16T10:50:27;27.55;;;14.63;;
29120;SDS011;16191;49.548;8.658;2022-12-16T10:53:14;30.48;;;14.38;;
29120;SDS011;16191;49.548;8.658;2022-12-16T10:59:08;29.75;;;13.98;;
29120;SDS011;16191;49.548;8.658;2022-12-16T11:01:55;29.60;;;14.55;;
29120;SDS011;16191;49.548;8.658;2022-12-16T11:04:49;27.95;;;13.30;;
29120;SDS011;16191;49.548;8.658;2022-12-16T11:07:36;26.70;;;13.13;;
29120;SDS011;16191;49.548;8.658;2022-12-16T11:10:33;25.42;;;13.50;;
29120;SDS011;16191;49.548;8.658;2022-12-16T11:13:30;22.63;;;12.35;;
29120;SDS011;16191;49.548;8.658;2022-12-16T11:19:22;21.27;;;11.15;;
29120;SDS011;16191;49.548;8.658;2022-12-16T11:22:12;22.90;;;12.48;;
29120;SDS011;16191;49.548;8.658;2022-12-16T11:25:12;30.00;;;12.77;;
29120;SDS011;16191;49.548;8.658;2022-12-16T11:30:54;21.17;;;11.68;;
29120;SDS011;16191;49.548;8.658;2022-12-16T11:33:43;25.92;;;12.00;;
29120;SDS011;16191;49.548;8.658;2022-12-16T11:36:30;22.30;;;11.18;;
29120;SDS011;16191;49.548;8.658;2022-12-16T11:39:18;26.88;;;12.02;;
29120;SDS011;16191;49.548;8.658;2022-12-16T11:42:06;22.73;;;11.82;;
29120;SDS011;16191;49.548;8.658;2022-12-16T11:45:01;23.05;;;11.77;;
29120;SDS011;16191;49.548;8.658;2022-12-16T11:50:49;21.38;;;10.98;;
29120;SDS011;16191;49.548;8.658;2022-12-16T11:53:48;22.13;;;11.00;;
29120;SDS011;16191;49.548;8.658;2022-12-16T11:56:41;17.17;;;9.55;;
29120;SDS011;16191;49.548;8.658;2022-12-16T11:59:32;21.33;;;10.60;;
29120;SDS011;16191;49.548;8.658;2022-12-16T12:02:29;21.10;;;11.00;;
29120;SDS011;16191;49.548;8.658;2022-12-16T12:05:29;20.15;;;11.32;;
29120;SDS011;16191;49.548;8.658;2022-12-16T12:11:38;18.23;;;9.85;;
29120;SDS011;16191;49.548;8.658;2022-12-16T12:17:27;18.02;;;10.00;;
29120;SDS011;16191;49.548;8.658;2022-12-16T12:20:41;22.77;;;10.70;;
29120;SDS011;16191;49.548;8.658;2022-12-16T12:26:43;21.98;;;11.10;;
29120;SDS011;16191;49.548;8.658;2022-12-16T12:29:47;24.02;;;10.10;;
29120;SDS011;16191;49.548;8.658;2022-12-16T12:32:51;20.50;;;10.23;;
29120;SDS011;16191;49.548;8.658;2022-12-16T12:35:55;20.52;;;10.10;;
29120;SDS011;16191;49.548;8.658;2022-12-16T12:38:59;18.25;;;10.48;;
29120;SDS011;16191;49.548;8.658;2022-12-16T12:44:56;18.25;;;8.90;;
29120;SDS011;16191;49.548;8.658;2022-12-16T12:48:09;19.55;;;10.23;;
29120;SDS011;16191;49.548;8.658;2022-12-16T12:51:04;18.67;;;9.30;;
29120;SDS011;16191;49.548;8.658;2022-12-16T12:57:25;15.43;;;8.65;;
29120;SDS011;16191;49.548;8.658;2022-12-16T13:00:16;15.73;;;8.98;;
29120;SDS011;16191;49.548;8.658;2022-12-16T13:03:12;20.40;;;9.35;;
29120;SDS011;16191;49.548;8.658;2022-12-16T13:06:15;18.98;;;9.27;;
29120;SDS011;16191;49.548;8.658;2022-12-16T13:09:02;15.25;;;8.20;;
29120;SDS011;16191;49.548;8.658;2022-12-16T13:15:07;19.95;;;8.43;;
29120;SDS011;16191;49.548;8.658;2022-12-16T13:20:43;19.85;;;9.02;;
29120;SDS011;16191;49.548;8.658;2022-12-16T13:23:30;17.35;;;8.75;;
29120;SDS011;16191;49.548;8.658;2022-12-16T13:26:18;19.17;;;8.40;;
29120;SDS011;16191;49.548;8.658;2022-12-16T13:29:12;18.58;;;9.85;;
29120;SDS011;16191;49.548;8.658;2022-12-16T13:32:00;18.15;;;9.32;;
29120;SDS011;16191;49.548;8.658;2022-12-16T13:38:02;18.13;;;8.70;;
29120;SDS011;16191;49.548;8.658;2022-12-16T13:40:59;19.38;;;9.75;;
29120;SDS011;16191;49.548;8.658;2022-12-16T13:43:56;16.15;;;8.95;;
29120;SDS011;16191;49.548;8.658;2022-12-16T14:01:09;17.77;;;9.70;;
29120;SDS011;16191;49.548;8.658;2022-12-16T14:03:56;16.73;;;9.02;;
29120;SDS011;16191;49.548;8.658;2022-12-16T14:06:44;15.95;;;9.07;;
29120;SDS011;16191;49.548;8.658;2022-12-16T14:09:32;20.25;;;10.13;;
29120;SDS011;16191;49.548;8.658;2022-12-16T14:12:28;20.67;;;11.48;;
29120;SDS011;16191;49.548;8.658;2022-12-16T14:18:49;19.83;;;9.88;;
29120;SDS011;16191;49.548;8.658;2022-12-16T14:21:47;23.10;;;10.35;;
29120;SDS011;16191;49.548;8.658;2022-12-16T14:24:36;20.92;;;10.50;;
29120;SDS011;16191;49.548;8.658;2022-12-16T14:27:22;16.70;;;9.77;;
29120;SDS011;16191;49.548;8.658;2022-12-16T14:30:22;15.00;;;9.35;;
29120;SDS011;16191;49.548;8.658;2022-12-16T14:33:25;20.55;;;10.35;;
29120;SDS011;16191;49.548;8.658;2022-12-16T14:36:22;17.25;;;9.95;;
29120;SDS011;16191;49.548;8.658;2022-12-16T14:39:13;20.50;;;10.48;;
29120;SDS011;16191;49.548;8.658;2022-12-16T14:42:19;20.92;;;11.20;;
29120;SDS011;16191;49.548;8.658;2022-12-16T14:45:21;18.00;;;10.05;;
29120;SDS011;16191;49.548;8.658;2022-12-16T14:48:27;17.73;;;9.55;;
29120;SDS011;16191;49.548;8.658;2022-12-16T14:51:28;17.52;;;10.13;;
29120;SDS011;16191;49.548;8.658;2022-12-16T14:54:15;23.65;;;11.38;;
29120;SDS011;16191;49.548;8.658;2022-12-16T14:57:25;22.85;;;11.95;;
29120;SDS011;16191;49.548;8.658;2022-12-16T15:06:03;24.58;;;10.50;;
29120;SDS011;16191;49.548;8.658;2022-12-16T15:08:56;16.80;;;9.80;;
29120;SDS011;16191;49.548;8.658;2022-12-16T15:11:51;21.48;;;10.85;;
29120;SDS011;16191;49.548;8.658;2022-12-16T15:14:38;20.58;;;10.40;;
29120;SDS011;16191;49.548;8.658;2022-12-16T15:17:32;21.25;;;11.52;;
29120;SDS011;16191;49.548;8.658;2022-12-16T15:20:36;19.70;;;9.90;;
29120;SDS011;16191;49.548;8.658;2022-12-16T15:23:29;24.08;;;10.80;;
29120;SDS011;16191;49.548;8.658;2022-12-16T15:26:21;19.83;;;10.43;;
29120;SDS011;16191;49.548;8.658;2022-12-16T15:29:25;21.00;;;9.65;;
29120;SDS011;16191;49.548;8.658;2022-12-16T15:32:30;20.63;;;10.70;;
29120;SDS011;16191;49.548;8.658;2022-12-16T15:38:17;20.23;;;10.75;;
29120;SDS011;16191;49.548;8.658;2022-12-16T15:41:26;18.42;;;10.82;;
29120;SDS011;16191;49.548;8.658;2022-12-16T15:44:18;25.08;;;11.88;;
29120;SDS011;16191;49.548;8.658;2022-12-16T15:47:19;22.30;;;10.82;;
29120;SDS011;16191;49.548;8.658;2022-12-16T15:50:13;26.83;;;12.25;;
29120;SDS011;16191;49.548;8.658;2022-12-16T15:56:24;25.08;;;12.68;;
29120;SDS011;16191;49.548;8.658;2022-12-16T15:59:22;25.48;;;12.32;;
29120;SDS011;16191;49.548;8.658;2022-12-16T16:05:15;24.95;;;12.60;;
29120;SDS011;16191;49.548;8.658;2022-12-16T16:08:03;26.60;;;12.60;;
29120;SDS011;16191;49.548;8.658;2022-12-16T16:10:49;25.35;;;12.05;;
29120;SDS011;16191;49.548;8.658;2022-12-16T16:13:34;24.27;;;13.57;;
29120;SDS011;16191;49.548;8.658;2022-12-16T16:16:27;31.42;;;14.55;;
29120;SDS011;16191;49.548;8.658;2022-12-16T16:19:22;29.02;;;13.82;;
29120;SDS011;16191;49.548;8.658;2022-12-16T16:22:10;25.40;;;12.77;;
29120;SDS011;16191;49.548;8.658;2022-12-16T16:25:00;32.95;;;16.08;;
29120;SDS011;16191;49.548;8.658;2022-12-16T16:27:46;38.00;;;18.13;;
29120;SDS011;16191;49.548;8.658;2022-12-16T16:30:31;37.28;;;16.40;;
29120;SDS011;16191;49.548;8.658;2022-12-16T16:33:17;35.40;;;16.80;;
29120;SDS011;16191;49.548;8.658;2022-12-16T16:36:09;34.13;;;15.55;;
29120;SDS011;16191;49.548;8.658;2022-12-16T16:38:59;27.77;;;13.98;;
29120;SDS011;16191;49.548;8.658;2022-12-16T16:41:52;21.98;;;12.07;;
29120;SDS011;16191;49.548;8.658;2022-12-16T16:44:38;30.10;;;12.93;;
29120;SDS011;16191;49.548;8.658;2022-12-16T16:47:24;23.70;;;13.05;;
29120;SDS011;16191;49.548;8.658;2022-12-16T16:50:12;24.77;;;12.55;;
29120;SDS011;16191;49.548;8.658;2022-12-16T16:52:58;26.73;;;14.43;;
29120;SDS011;16191;49.548;8.658;2022-12-16T16:55:44;27.38;;;13.55;;
29120;SDS011;16191;49.548;8.658;2022-12-16T16:58:29;27.50;;;13.93;;
29120;SDS011;16191;49.548;8.658;2022-12-16T17:01:18;28.52;;;16.60;;
29120;SDS011;16191;49.548;8.658;2022-12-16T17:04:03;28.08;;;15.60;;
29120;SDS011;16191;49.548;8.658;2022-12-16T17:06:50;27.98;;;14.70;;
29120;SDS011;16191;49.548;8.658;2022-12-16T17:09:35;30.65;;;15.10;;
29120;SDS011;16191;49.548;8.658;2022-12-16T17:12:28;32.65;;;15.68;;
29120;SDS011;16191;49.548;8.658;2022-12-16T17:15:19;27.70;;;14.68;;
29120;SDS011;16191;49.548;8.658;2022-12-16T17:18:06;29.85;;;14.93;;
29120;SDS011;16191;49.548;8.658;2022-12-16T17:20:53;28.58;;;14.48;;
29120;SDS011;16191;49.548;8.658;2022-12-16T17:23:40;29.20;;;15.18;;
29120;SDS011;16191;49.548;8.658;2022-12-16T17:26:26;29.73;;;15.52;;
29120;SDS011;16191;49.548;8.658;2022-12-16T17:29:19;28.63;;;15.40;;
29120;SDS011;16191;49.548;8.658;2022-12-16T17:32:06;30.08;;;14.98;;
29120;SDS011;16191;49.548;8.658;2022-12-16T17:35:11;32.90;;;17.08;;
29120;SDS011;16191;49.548;8.658;2022-12-16T17:37:57;35.78;;;16.58;;
29120;SDS011;16191;49.548;8.658;2022-12-16T17:40:42;31.17;;;15.65;;
29120;SDS011;16191;49.548;8.658;2022-12-16T17:43:27;31.55;;;16.33;;
29120;SDS011;16191;49.548;8.658;2022-12-16T17:46:13;34.08;;;15.90;;
29120;SDS011;16191;49.548;8.658;2022-12-16T17:48:58;32.47;;;16.38;;
29120;SDS011;16191;49.548;8.658;2022-12-16T17:51:44;35.63;;;16.00;;
29120;SDS011;16191;49.548;8.658;2022-12-16T17:54:29;31.77;;;16.13;;